Time;durP1;ratioP1;P1;durP2;ratioP2;P2;SDS_P1;SDS_P2;PMS_P1;PMS_P2;Temp;Humidity;BMP_temperature;BMP_pressure;BME280_temperature;BME280_humidity;BME280_pressure;Samples;Min_cycle;Max_cycle;Signal;HPM_P1;HPM_P2
2021/04/11 00:00:32;;;;;;;6.10;2.22;;;12.10;60.90;;;;;;5096779;28;20024;-80
2021/04/11 00:02:58;;;;;;;4.82;2.50;;;12.10;60.80;;;;;;5095232;28;20142;-79
2021/04/11 00:05:28;;;;;;;6.75;2.90;;;12.10;60.50;;;;;;5096869;28;20020;-80
2021/04/11 00:07:54;;;;;;;5.88;2.70;;;12.10;60.50;;;;;;5105530;28;20043;-80
2021/04/11 00:10:29;;;;;;;6.20;2.95;;;12.10;60.30;;;;;;5083232;28;20024;-81
2021/04/11 00:12:56;;;;;;;5.90;2.72;;;12.10;60.00;;;;;;5092389;28;20388;-80
2021/04/11 00:15:22;;;;;;;5.78;2.53;;;12.10;60.00;;;;;;5091527;28;20111;-82
2021/04/11 00:17:48;;;;;;;4.07;2.45;;;12.10;59.70;;;;;;5100964;28;20062;-81
2021/04/11 00:20:14;;;;;;;3.85;2.35;;;12.20;59.90;;;;;;5102250;28;20031;-81
2021/04/11 00:22:41;;;;;;;5.30;2.38;;;12.20;59.80;;;;;;5108156;28;20579;-81
2021/04/11 00:25:13;;;;;;;5.45;2.70;;;12.10;59.90;;;;;;5093616;28;20427;-81
2021/04/11 00:27:39;;;;;;;4.45;2.70;;;12.10;59.90;;;;;;5095398;28;20081;-81
2021/04/11 00:30:06;;;;;;;4.57;2.33;;;12.10;60.00;;;;;;5092110;28;20128;-81
2021/04/11 00:32:32;;;;;;;4.22;2.33;;;12.10;60.10;;;;;;5095009;28;20140;-82
2021/04/11 00:34:57;;;;;;;4.35;2.60;;;12.10;60.10;;;;;;5092497;28;20052;-82
2021/04/11 00:37:23;;;;;;;3.40;2.00;;;12.10;60.00;;;;;;5108820;28;20507;-82
2021/04/11 00:39:49;;;;;;;3.75;2.00;;;12.10;59.80;;;;;;5100756;28;20020;-82
2021/04/11 00:42:38;;;;;;;5.22;2.42;;;12.10;59.80;;;;;;5091732;28;20032;-81
2021/04/11 00:45:16;;;;;;;3.28;2.05;;;12.10;59.50;;;;;;5094440;28;20035;-81
2021/04/11 00:47:42;;;;;;;3.83;2.30;;;12.10;59.20;;;;;;5095136;28;20047;-82
2021/04/11 00:50:13;;;;;;;3.75;1.85;;;12.20;59.20;;;;;;5091308;28;20123;-80
2021/04/11 00:52:39;;;;;;;3.00;2.00;;;12.20;59.20;;;;;;5095452;28;20055;-82
2021/04/11 00:55:05;;;;;;;2.78;1.80;;;12.20;59.30;;;;;;5093067;28;20035;-81
2021/04/11 00:57:31;;;;;;;2.80;1.85;;;12.20;59.00;;;;;;5094516;28;20086;-82
2021/04/11 00:59:56;;;;;;;4.03;2.20;;;12.20;59.20;;;;;;5091759;28;20052;-82
2021/04/11 01:02:22;;;;;;;2.58;1.83;;;12.20;59.00;;;;;;5104671;28;20576;-82
2021/04/11 01:04:48;;;;;;;4.20;1.65;;;12.20;58.90;;;;;;5092033;28;20095;-82
2021/04/11 01:07:15;;;;;;;2.95;2.20;;;12.20;58.90;;;;;;5110133;28;20048;-81
2021/04/11 01:09:44;;;;;;;3.50;2.10;;;12.20;58.90;;;;;;5103681;28;20177;-81
2021/04/11 01:12:16;;;;;;;2.50;1.77;;;12.20;58.80;;;;;;5095468;28;20465;-80
2021/04/11 01:14:44;;;;;;;4.22;2.00;;;12.20;58.80;;;;;;5099038;28;20019;-80
2021/04/11 01:17:20;;;;;;;3.33;1.88;;;12.20;58.70;;;;;;5098879;28;20039;-80
2021/04/11 01:19:50;;;;;;;4.85;1.80;;;12.30;58.80;;;;;;5109515;28;20104;-82
2021/04/11 01:22:45;;;;;;;3.00;1.65;;;12.30;58.80;;;;;;5107148;28;20452;-82
2021/04/11 01:25:19;;;;;;;2.10;1.45;;;12.30;58.90;;;;;;5096908;28;20150;-83
2021/04/11 01:27:45;;;;;;;5.35;1.90;;;12.30;59.00;;;;;;5098814;28;20042;-84
2021/04/11 01:30:22;;;;;;;4.18;1.65;;;12.20;59.00;;;;;;5105346;28;20085;-83
2021/04/11 01:32:49;;;;;;;3.70;1.77;;;12.20;59.00;;;;;;5111562;28;20015;-81
2021/04/11 01:35:17;;;;;;;4.55;1.60;;;12.30;59.10;;;;;;5080877;28;20473;-81
2021/04/11 01:37:43;;;;;;;2.70;1.50;;;12.30;59.10;;;;;;5096915;28;20032;-81
2021/04/11 01:40:13;;;;;;;2.65;1.80;;;12.20;59.30;;;;;;5097815;28;20024;-81
2021/04/11 01:42:40;;;;;;;2.38;1.42;;;12.20;59.30;;;;;;5094929;28;20115;-82
2021/04/11 01:45:07;;;;;;;3.25;1.70;;;12.20;59.40;;;;;;5096627;28;20061;-81
2021/04/11 01:47:33;;;;;;;4.28;1.88;;;12.20;59.40;;;;;;5097729;28;20492;-82
2021/04/11 01:49:59;;;;;;;3.17;1.63;;;12.20;59.40;;;;;;5094890;28;20032;-82
2021/04/11 01:52:28;;;;;;;7.47;3.22;;;12.30;59.40;;;;;;5097493;28;20031;-82
2021/04/11 01:54:53;;;;;;;7.90;4.13;;;12.30;59.20;;;;;;5094481;28;20031;-82
2021/04/11 01:57:31;;;;;;;5.57;2.40;;;12.30;59.30;;;;;;5114937;28;20020;-82
2021/04/11 02:00:07;;;;;;;3.28;1.80;;;12.30;59.30;;;;;;5107295;28;20032;-82
2021/04/11 02:02:33;;;;;;;4.15;1.75;;;12.30;59.40;;;;;;5097526;28;20027;-82
2021/04/11 02:04:58;;;;;;;3.35;1.75;;;12.30;59.60;;;;;;5094900;28;20590;-80
2021/04/11 02:07:25;;;;;;;4.00;1.92;;;12.20;59.60;;;;;;5093566;28;20032;-81
2021/04/11 02:09:50;;;;;;;3.70;1.80;;;12.20;59.80;;;;;;5097974;28;20469;-81
2021/04/11 02:12:17;;;;;;;3.63;1.90;;;12.20;59.90;;;;;;5093820;28;20024;-81
2021/04/11 02:14:44;;;;;;;3.55;1.83;;;12.20;60.00;;;;;;5110366;28;20023;-81
2021/04/11 02:17:15;;;;;;;3.08;1.73;;;12.10;60.10;;;;;;5095525;28;20039;-80
2021/04/11 02:19:41;;;;;;;3.22;2.10;;;12.10;60.20;;;;;;5093923;28;20483;-80
2021/04/11 02:22:21;;;;;;;4.20;1.85;;;12.20;60.20;;;;;;5097441;28;20118;-81
2021/04/11 02:24:47;;;;;;;2.45;1.60;;;12.20;60.30;;;;;;5097888;28;20118;-81
2021/04/11 02:27:15;;;;;;;3.63;1.30;;;12.10;60.40;;;;;;5097505;28;20098;-81
2021/04/11 02:29:41;;;;;;;3.97;1.80;;;12.10;60.90;;;;;;5109117;28;20031;-82
2021/04/11 02:32:09;;;;;;;2.50;1.80;;;12.10;60.70;;;;;;5105235;28;20031;-82
2021/04/11 02:34:34;;;;;;;3.55;1.65;;;12.10;60.70;;;;;;5083053;28;20111;-82
2021/04/11 02:37:10;;;;;;;2.80;1.60;;;12.20;60.90;;;;;;5094415;28;20082;-82
2021/04/11 02:39:40;;;;;;;2.45;1.70;;;12.10;60.90;;;;;;5093859;28;20376;-82
2021/04/11 02:42:13;;;;;;;3.90;1.90;;;12.10;61.30;;;;;;5096957;28;20024;-82
2021/04/11 02:44:42;;;;;;;3.10;1.60;;;12.20;61.20;;;;;;5093805;28;20487;-81
2021/04/11 02:47:09;;;;;;;3.25;1.80;;;12.20;61.00;;;;;;5110273;28;20052;-79
2021/04/11 02:49:34;;;;;;;2.80;1.67;;;12.20;60.90;;;;;;5081995;28;20062;-82
2021/04/11 02:52:07;;;;;;;3.00;1.63;;;12.20;61.00;;;;;;5087942;28;20078;-82
2021/04/11 02:54:34;;;;;;;2.70;1.48;;;12.20;61.80;;;;;;5089574;28;20023;-81
2021/04/11 02:57:02;;;;;;;2.13;1.70;;;12.20;61.60;;;;;;5096298;28;20357;-81
2021/04/11 02:59:28;;;;;;;2.83;1.80;;;12.20;61.40;;;;;;5108834;28;20034;-81
2021/04/11 03:01:54;;;;;;;4.72;2.03;;;12.20;61.30;;;;;;5084496;28;20023;-81
2021/04/11 03:04:22;;;;;;;3.13;1.55;;;12.30;61.30;;;;;;5084238;28;20161;-81
2021/04/11 03:07:00;;;;;;;2.78;1.55;;;12.30;61.30;;;;;;5076277;28;20544;-81
2021/04/11 03:09:32;;;;;;;2.97;1.50;;;12.30;61.60;;;;;;5079637;28;20024;-81
2021/04/11 03:12:00;;;;;;;2.55;1.52;;;12.40;61.70;;;;;;5087799;28;20040;-82
2021/04/11 03:14:29;;;;;;;3.72;1.60;;;12.30;61.80;;;;;;5088340;28;20024;-81
2021/04/11 03:16:56;;;;;;;3.28;1.50;;;12.30;62.10;;;;;;5097779;28;20067;-80
2021/04/11 03:19:44;;;;;;;1.90;1.33;;;12.30;62.20;;;;;;5092282;28;20043;-81
2021/04/11 03:22:09;;;;;;;3.67;1.40;;;12.30;62.10;;;;;;5068218;28;20039;-80
2021/04/11 03:24:35;;;;;;;2.03;1.40;;;12.30;62.40;;;;;;5100174;28;20024;-81
2021/04/11 03:27:15;;;;;;;3.38;1.45;;;12.20;62.70;;;;;;5093055;28;20072;-80
2021/04/11 03:29:49;;;;;;;2.78;1.25;;;12.20;63.20;;;;;;5106924;28;20050;-81
2021/04/11 03:32:23;;;;;;;1.35;1.20;;;12.20;63.00;;;;;;5086379;28;20027;-82
2021/04/11 03:34:51;;;;;;;2.50;1.45;;;12.20;63.50;;;;;;5081167;28;20149;-82
2021/04/11 03:37:18;;;;;;;2.00;1.20;;;12.20;63.20;;;;;;5095248;28;20026;-81
2021/04/11 03:39:44;;;;;;;2.63;1.60;;;12.20;63.40;;;;;;5083911;28;20024;-82
2021/04/11 03:42:14;;;;;;;1.20;1.10;;;12.10;63.60;;;;;;5085191;28;20024;-82
2021/04/11 03:44:40;;;;;;;2.03;1.30;;;12.10;63.50;;;;;;5108536;28;20023;-83
2021/04/11 03:47:09;;;;;;;2.05;1.35;;;12.20;63.50;;;;;;5078693;28;20083;-83
2021/04/11 03:49:57;;;;;;;2.15;1.25;;;12.20;63.80;;;;;;5095415;28;20047;-82
2021/04/11 03:52:33;;;;;;;2.10;1.30;;;12.30;64.00;;;;;;5100999;28;20484;-82
2021/04/11 03:55:03;;;;;;;1.80;1.25;;;12.20;64.20;;;;;;5092798;28;20031;-82
2021/04/11 03:57:49;;;;;;;3.25;1.50;;;12.20;64.10;;;;;;5079903;28;20035;-82
2021/04/11 04:00:37;;;;;;;1.60;1.27;;;12.20;64.10;;;;;;5113331;28;20028;-82
2021/04/11 04:03:08;;;;;;;3.88;1.50;;;12.20;64.00;;;;;;5078030;28;20032;-82
2021/04/11 04:05:36;;;;;;;3.17;1.73;;;12.30;64.00;;;;;;5090392;28;20119;-82
2021/04/11 04:08:03;;;;;;;1.27;1.13;;;12.30;64.00;;;;;;5084805;28;20040;-83
2021/04/11 04:10:37;;;;;;;1.58;1.25;;;12.30;63.90;;;;;;5081846;28;20396;-81
2021/04/11 04:13:24;;;;;;;2.85;1.20;;;12.30;64.10;;;;;;5110960;28;20024;-81
2021/04/11 04:16:11;;;;;;;1.75;1.05;;;12.20;64.10;;;;;;5087909;28;20036;-81
2021/04/11 04:18:49;;;;;;;1.63;1.05;;;12.30;64.00;;;;;;5089716;28;20039;-81
2021/04/11 04:21:28;;;;;;;1.95;1.30;;;12.30;64.00;;;;;;5078239;28;20025;-81
2021/04/11 04:24:18;;;;;;;2.03;1.25;;;12.30;63.80;;;;;;5105508;28;20020;-82
2021/04/11 04:26:58;;;;;;;2.67;1.50;;;12.30;63.60;;;;;;5108251;28;20132;-81
2021/04/11 04:29:38;;;;;;;5.13;1.50;;;12.40;63.80;;;;;;5078272;28;20031;-81
2021/04/11 04:32:46;;;;;;;3.15;1.25;;;12.40;63.70;;;;;;5085900;28;20492;-81
2021/04/11 04:35:14;;;;;;;3.53;1.35;;;12.50;63.80;;;;;;5090810;28;20027;-80
2021/04/11 04:38:04;;;;;;;1.90;1.10;;;12.40;63.40;;;;;;5099117;28;20457;-81
2021/04/11 04:40:42;;;;;;;2.90;1.25;;;12.40;63.60;;;;;;5081443;28;20461;-81
2021/04/11 04:43:20;;;;;;;1.98;1.13;;;12.40;63.80;;;;;;5113605;28;20024;-80
2021/04/11 04:45:57;;;;;;;5.13;1.00;;;12.30;63.90;;;;;;5085869;28;20447;-80
2021/04/11 04:48:30;;;;;;;1.33;1.05;;;12.30;64.20;;;;;;5086641;28;20515;-81
2021/04/11 04:51:05;;;;;;;1.77;1.20;;;12.30;64.20;;;;;;5113721;28;20024;-81
2021/04/11 04:53:58;;;;;;;1.92;1.00;;;12.40;64.00;;;;;;5083456;28;20035;-81
2021/04/11 04:56:32;;;;;;;2.65;0.98;;;12.40;64.40;;;;;;5088052;28;20035;-81
2021/04/11 04:59:20;;;;;;;1.75;1.00;;;12.30;64.10;;;;;;5098815;28;20028;-80
2021/04/11 05:01:53;;;;;;;1.75;1.10;;;12.40;64.20;;;;;;5085946;28;20066;-80
2021/04/11 05:04:24;;;;;;;2.92;1.08;;;12.40;63.90;;;;;;5087062;28;20116;-81
2021/04/11 05:06:56;;;;;;;1.48;0.73;;;12.40;63.60;;;;;;5112786;28;20026;-81
2021/04/11 05:09:34;;;;;;;2.08;1.30;;;12.30;64.30;;;;;;5099430;28;20036;-80
2021/04/11 05:12:19;;;;;;;3.47;1.00;;;12.30;64.40;;;;;;5107648;28;20039;-81
2021/04/11 05:15:08;;;;;;;4.30;1.25;;;12.20;64.60;;;;;;5093781;28;20023;-81
2021/04/11 05:17:44;;;;;;;1.30;0.90;;;12.20;65.00;;;;;;5083936;28;20050;-81
2021/04/11 05:20:17;;;;;;;1.73;1.17;;;12.10;65.40;;;;;;5087562;28;20028;-81
2021/04/11 05:22:52;;;;;;;2.08;1.00;;;12.10;65.70;;;;;;5093345;28;20019;-82
2021/04/11 05:25:34;;;;;;;2.60;1.13;;;12.00;65.90;;;;;;5099126;28;20520;-82
2021/04/11 05:28:06;;;;;;;;;;;11.90;65.90;;;;;;5099119;28;20484;-83
2021/04/11 05:30:43;;;;;;;1.65;0.77;;;11.90;66.10;;;;;;5080314;28;19950;-83
2021/04/11 05:33:15;;;;;;;2.28;1.20;;;11.90;66.10;;;;;;5092651;28;20023;-77
2021/04/11 05:35:40;;;;;;;;;;;11.90;66.30;;;;;;5084575;28;20020;-82
2021/04/11 05:38:33;;;;;;;2.90;1.30;;;11.80;66.80;;;;;;5080988;28;19904;-82
2021/04/11 05:41:02;;;;;;;1.45;0.90;;;11.80;66.70;;;;;;5077846;28;20035;-82
2021/04/11 05:43:41;;;;;;;4.07;1.40;;;11.70;66.70;;;;;;5097660;28;20457;-82
2021/04/11 05:46:19;;;;;;;3.50;1.20;;;11.70;67.00;;;;;;5087999;28;20024;-82
2021/04/11 05:49:20;;;;;;;1.95;1.20;;;11.70;67.10;;;;;;5097318;28;20052;-82
2021/04/11 05:51:56;;;;;;;2.72;1.20;;;11.70;67.30;;;;;;5080367;28;20100;-80
2021/04/11 05:54:31;;;;;;;1.88;1.20;;;11.70;67.20;;;;;;5093397;28;20028;-82
2021/04/11 05:57:03;;;;;;;1.40;0.93;;;11.70;67.20;;;;;;5097895;28;20031;-82
2021/04/11 05:59:39;;;;;;;2.30;1.10;;;11.80;67.10;;;;;;5097611;28;20024;-82
2021/04/11 06:02:09;;;;;;;1.58;1.10;;;11.70;66.90;;;;;;5113535;28;20046;-81
2021/04/11 06:04:44;;;;;;;2.65;1.20;;;11.80;66.30;;;;;;5092157;28;20020;-83
2021/04/11 06:07:28;;;;;;;2.90;1.10;;;11.80;66.20;;;;;;5112167;28;20019;-77
2021/04/11 06:10:20;;;;;;;2.17;1.33;;;11.90;66.80;;;;;;5095444;28;20038;-84
2021/04/11 06:12:51;;;;;;;1.73;0.82;;;11.90;66.00;;;;;;5093555;28;20024;-83
2021/04/11 06:15:41;;;;;;;1.88;1.23;;;12.00;65.80;;;;;;5093024;28;20072;-81
2021/04/11 06:18:09;;;;;;;2.10;1.33;;;12.10;65.50;;;;;;5093137;28;20038;-81
2021/04/11 06:20:36;;;;;;;2.15;1.25;;;12.10;65.20;;;;;;5090957;28;20035;-81
2021/04/11 06:23:42;;;;;;;2.83;1.33;;;12.20;65.20;;;;;;5094119;28;20024;-83
2021/04/11 06:26:13;;;;;;;4.15;1.70;;;12.30;65.70;;;;;;5091918;28;20039;-82
2021/04/11 06:28:51;;;;;;;3.83;1.70;;;12.30;65.20;;;;;;5092344;28;20465;-83
2021/04/11 06:31:31;;;;;;;3.47;1.55;;;12.40;65.70;;;;;;5109996;28;20098;-82
2021/04/11 06:34:30;;;;;;;3.05;1.60;;;12.40;66.80;;;;;;5094158;28;20038;-82
2021/04/11 06:37:01;;;;;;;3.05;1.63;;;12.40;67.40;;;;;;5095329;28;20047;-80
2021/04/11 06:39:31;;;;;;;3.28;1.88;;;12.50;68.30;;;;;;5090878;28;20023;-82
2021/04/11 06:42:29;;;;;;;5.13;1.67;;;12.50;68.50;;;;;;5109374;28;20080;-82
2021/04/11 06:45:11;;;;;;;2.95;1.42;;;12.60;68.60;;;;;;5091824;28;20484;-82
2021/04/11 06:47:49;;;;;;;2.47;1.80;;;12.60;68.30;;;;;;5108405;28;20492;-81
2021/04/11 06:50:26;;;;;;;2.25;1.50;;;12.70;67.90;;;;;;5085718;28;20054;-81
2021/04/11 06:53:04;;;;;;;5.57;1.77;;;12.70;67.70;;;;;;5085727;28;20106;-81
2021/04/11 06:55:42;;;;;;;3.03;1.38;;;12.70;66.80;;;;;;5085813;28;20035;-80
2021/04/11 06:58:19;;;;;;;2.88;1.42;;;12.70;67.00;;;;;;5089716;28;20027;-81
2021/04/11 07:01:14;;;;;;;3.33;1.50;;;12.80;67.10;;;;;;5091047;28;20024;-82
2021/04/11 07:03:52;;;;;;;4.40;1.88;;;12.80;65.60;;;;;;5015877;28;20040;-82
2021/04/11 07:06:29;;;;;;;2.22;1.42;;;12.90;66.90;;;;;;5083759;28;20034;-81
2021/04/11 07:09:37;;;;;;;2.70;1.42;;;12.90;65.80;;;;;;5103150;28;20134;-82
2021/04/11 07:12:27;;;;;;;4.35;1.70;;;12.90;67.30;;;;;;5108804;28;20036;-80
2021/04/11 07:15:30;;;;;;;4.13;1.25;;;12.90;67.10;;;;;;5088997;28;20020;-82
2021/04/11 07:18:15;;;;;;;2.92;1.50;;;12.90;65.40;;;;;;5087051;28;20468;-82
2021/04/11 07:20:43;;;;;;;2.28;1.60;;;12.90;66.00;;;;;;5089986;28;20037;-83
2021/04/11 07:23:32;;;;;;;2.35;1.60;;;13.00;65.70;;;;;;5106826;28;20024;-82
2021/04/11 07:26:16;;;;;;;2.90;1.38;;;13.20;64.70;;;;;;5080410;28;20036;-83
2021/04/11 07:29:39;;;;;;;2.55;1.40;;;13.30;64.80;;;;;;5087649;28;20418;-85
2021/04/11 07:32:42;;;;;;;3.95;2.15;;;13.30;64.60;;;;;;5055804;28;20076;-82
2021/04/11 07:35:50;;;;;;;4.28;1.65;;;13.40;63.90;;;;;;5092225;28;20066;-81
2021/04/11 07:38:29;;;;;;;7.15;1.35;;;13.50;63.90;;;;;;5071873;28;20504;-85
2021/04/11 07:41:23;;;;;;;2.85;1.05;;;13.60;63.50;;;;;;5111740;28;20461;-82
2021/04/11 07:43:57;;;;;;;2.72;1.20;;;13.60;63.10;;;;;;5094931;28;20061;-82
2021/04/11 07:46:38;;;;;;;2.58;1.00;;;13.70;63.30;;;;;;5092668;28;20515;-82
2021/04/11 07:49:31;;;;;;;1.23;0.70;;;13.80;62.60;;;;;;5094973;28;20031;-83
2021/04/11 07:52:15;;;;;;;1.15;0.75;;;14.00;60.20;;;;;;5093267;28;20059;-82
2021/04/11 07:55:13;;;;;;;0.95;0.70;;;14.10;60.30;;;;;;5092496;28;20013;-84
2021/04/11 07:58:02;;;;;;;1.30;0.70;;;14.20;59.90;;;;;;5088219;28;20460;-83
2021/04/11 08:00:42;;;;;;;1.13;0.80;;;14.30;59.60;;;;;;5045547;28;20039;-82
2021/04/11 08:03:20;;;;;;;1.33;0.80;;;14.40;59.60;;;;;;5113113;28;20103;-82
2021/04/11 08:06:23;;;;;;;2.17;0.98;;;14.40;59.60;;;;;;5091512;28;20055;-84
2021/04/11 08:09:04;;;;;;;1.63;1.00;;;14.50;59.60;;;;;;5093733;28;20023;-84
2021/04/11 08:11:49;;;;;;;1.45;0.93;;;14.60;59.90;;;;;;5082378;28;20107;-84
2021/04/11 08:14:45;;;;;;;3.80;0.95;;;14.60;58.80;;;;;;5083824;28;20021;-80
2021/04/11 08:17:29;;;;;;;1.00;0.80;;;14.70;59.00;;;;;;5085574;28;20023;-83
2021/04/11 08:19:58;;;;;;;1.38;0.65;;;14.70;58.30;;;;;;5097603;28;20130;-85
2021/04/11 08:22:35;;;;;;;1.33;0.65;;;14.90;58.20;;;;;;5111485;28;20106;-82
2021/04/11 08:25:29;;;;;;;3.33;0.55;;;14.90;57.00;;;;;;5097582;28;20027;-82
2021/04/11 08:28:22;;;;;;;2.53;0.70;;;15.00;57.60;;;;;;5096927;28;20047;-81
2021/04/11 08:31:10;;;;;;;1.00;0.50;;;15.10;56.70;;;;;;5097965;28;20039;-83
2021/04/11 08:34:13;;;;;;;2.95;0.75;;;15.10;56.00;;;;;;5093791;28;20491;-76
2021/04/11 08:36:57;;;;;;;1.02;0.52;;;15.30;57.30;;;;;;5089654;28;20097;-76
2021/04/11 08:39:45;;;;;;;2.40;0.80;;;15.30;55.30;;;;;;5110870;28;20035;-76
2021/04/11 08:42:22;;;;;;;4.10;0.50;;;15.40;55.30;;;;;;5090138;28;20059;-76
2021/04/11 08:45:15;;;;;;;1.33;0.40;;;15.50;55.50;;;;;;5097809;28;20084;-76
2021/04/11 08:47:48;;;;;;;1.75;0.50;;;15.70;54.50;;;;;;5098164;28;20115;-76
2021/04/11 08:50:29;;;;;;;2.88;0.43;;;15.80;55.00;;;;;;5088402;28;20108;-75
2021/04/11 08:53:00;;;;;;;2.92;0.60;;;15.80;54.50;;;;;;5110805;28;20027;-75
2021/04/11 08:55:37;;;;;;;2.08;0.57;;;15.80;53.80;;;;;;5111724;28;20381;-75
2021/04/11 08:58:36;;;;;;;2.28;0.77;;;15.90;53.30;;;;;;5096651;28;20042;-75
2021/04/11 09:01:25;;;;;;;1.00;0.60;;;16.00;53.40;;;;;;5114048;28;20036;-75
2021/04/11 09:03:57;;;;;;;0.90;0.50;;;16.10;54.00;;;;;;5087890;28;20492;-75
2021/04/11 09:06:41;;;;;;;0.90;0.68;;;16.20;54.10;;;;;;5087770;28;20050;-79
2021/04/11 09:09:30;;;;;;;8.90;4.32;;;16.30;53.90;;;;;;5099056;28;20024;-77
2021/04/11 09:12:26;;;;;;;19.75;11.45;;;16.40;53.90;;;;;;5089539;28;20480;-78
2021/04/11 09:15:07;;;;;;;4.28;1.38;;;16.40;53.30;;;;;;5111725;28;20089;-77
2021/04/11 09:17:53;;;;;;;2.63;2.17;;;16.40;52.60;;;;;;5114143;28;20093;-76
2021/04/11 09:20:40;;;;;;;3.55;2.05;;;16.40;53.40;;;;;;5091612;28;20032;-77
2021/04/11 09:23:23;;;;;;;3.72;1.80;;;16.30;53.50;;;;;;5096095;28;20169;-77
2021/04/11 09:26:37;;;;;;;3.20;0.75;;;16.40;53.20;;;;;;5108094;28;20105;-78
2021/04/11 09:29:33;;;;;;;0.88;0.60;;;16.50;52.50;;;;;;5017058;28;20039;-79
2021/04/11 09:32:27;;;;;;;5.30;3.75;;;16.60;52.40;;;;;;5093935;28;20039;-78
2021/04/11 09:35:29;;;;;;;2.28;0.95;;;16.70;51.90;;;;;;5086324;28;20027;-77
2021/04/11 09:38:24;;;;;;;7.80;5.30;;;16.90;51.50;;;;;;5079809;28;20114;-78
2021/04/11 09:41:18;;;;;;;2.47;0.85;;;16.90;51.50;;;;;;5095294;28;20043;-74
2021/04/11 09:44:02;;;;;;;1.85;0.80;;;16.90;51.00;;;;;;5101739;28;20012;-76
2021/04/11 09:47:15;;;;;;;1.27;0.60;;;16.90;51.20;;;;;;5101333;28;20036;-75
2021/04/11 09:49:56;;;;;;;2.65;0.70;;;16.90;51.00;;;;;;4978978;28;20030;-79
2021/04/11 09:52:52;;;;;;;5.88;3.28;;;16.90;51.90;;;;;;5003645;28;20042;-75
2021/04/11 09:55:23;;;;;;;4.55;2.63;;;17.00;51.90;;;;;;5083748;28;20092;-75
2021/04/11 09:58:04;;;;;;;1.55;1.13;;;17.00;51.10;;;;;;5089127;28;20050;-73
2021/04/11 10:00:37;;;;;;;3.70;0.68;;;17.00;51.30;;;;;;5088714;28;20411;-74
2021/04/11 10:03:22;;;;;;;1.33;0.93;;;16.90;51.60;;;;;;5095022;28;20038;-74
2021/04/11 10:06:15;;;;;;;2.10;0.63;;;16.90;51.30;;;;;;5083378;28;20019;-73
2021/04/11 10:09:05;;;;;;;1.30;0.60;;;16.90;51.60;;;;;;5080924;28;20028;-74
2021/04/11 10:11:31;;;;;;;2.10;0.68;;;16.90;51.60;;;;;;5080420;28;20023;-74
2021/04/11 10:14:15;;;;;;;1.75;0.60;;;16.90;51.30;;;;;;5087818;28;20529;-75
2021/04/11 10:16:41;;;;;;;2.80;0.90;;;16.90;50.60;;;;;;5090094;28;20468;-75
2021/04/11 10:19:16;;;;;;;0.80;0.57;;;16.70;51.20;;;;;;5079423;28;20032;-75
2021/04/11 10:21:53;;;;;;;17.45;9.55;;;16.70;51.70;;;;;;5089281;28;20024;-75
2021/04/11 10:24:40;;;;;;;5.38;2.63;;;16.80;50.70;;;;;;5086833;28;20035;-76
2021/04/11 10:27:12;;;;;;;5.53;2.05;;;16.70;50.70;;;;;;5079409;28;20094;-75
2021/04/11 10:29:42;;;;;;;2.33;1.08;;;16.60;51.10;;;;;;5089373;28;20020;-75
2021/04/11 10:32:13;;;;;;;3.28;0.63;;;16.70;51.50;;;;;;5093781;28;20046;-75
2021/04/11 10:34:45;;;;;;;2.37;0.60;;;16.70;51.30;;;;;;5080767;28;20243;-75
2021/04/11 10:37:36;;;;;;;3.35;0.70;;;16.70;52.10;;;;;;5094499;28;20066;-75
2021/04/11 10:40:10;;;;;;;1.10;0.60;;;16.60;52.40;;;;;;5086529;28;20032;-75
2021/04/11 10:43:24;;;;;;;1.77;0.60;;;16.70;51.90;;;;;;5089065;28;20038;-77
2021/04/11 10:46:17;;;;;;;0.60;0.50;;;16.60;51.90;;;;;;5079745;28;20124;-79
2021/04/11 10:49:04;;;;;;;2.70;1.13;;;16.60;52.00;;;;;;5086355;28;20048;-76
2021/04/11 10:51:57;;;;;;;1.60;0.65;;;16.60;52.10;;;;;;5076033;28;20020;-76
2021/04/11 10:54:47;;;;;;;3.20;0.80;;;16.70;51.70;;;;;;5080630;28;20107;-77
2021/04/11 10:57:19;;;;;;;1.33;0.70;;;16.80;51.80;;;;;;5088752;28;20066;-77
2021/04/11 10:59:56;;;;;;;;;;;16.90;52.30;;;;;;5080299;28;20024;-76
2021/04/11 11:03:02;;;;;;;1.85;0.50;;;16.90;51.50;;;;;;5091278;28;20316;-76
2021/04/11 11:05:38;;;;;;;1.67;0.60;;;16.80;52.40;;;;;;5072164;28;20021;-75
2021/04/11 11:08:22;;;;;;;0.80;0.50;;;16.80;52.20;;;;;;5082379;28;20473;-77
2021/04/11 11:11:25;;;;;;;0.52;0.43;;;16.70;52.60;;;;;;5076226;28;20465;-76
2021/04/11 11:14:04;;;;;;;9.40;4.72;;;16.60;52.10;;;;;;5079298;28;20028;-76
2021/04/11 11:16:33;;;;;;;3.00;1.63;;;16.70;52.00;;;;;;5083494;28;20028;-77
2021/04/11 11:19:13;;;;;;;1.42;0.80;;;16.80;51.90;;;;;;5092409;28;20494;-77
2021/04/11 11:21:56;;;;;;;2.22;0.90;;;16.70;52.30;;;;;;5086394;28;20031;-77
2021/04/11 11:24:27;;;;;;;1.92;0.65;;;16.70;52.30;;;;;;5084276;28;20159;-77
2021/04/11 11:27:15;;;;;;;3.45;0.75;;;16.80;51.90;;;;;;5075457;28;20020;-77
2021/04/11 11:30:01;;;;;;;2.88;0.90;;;17.00;51.50;;;;;;5077297;28;20036;-77
2021/04/11 11:32:33;;;;;;;1.65;0.65;;;17.10;52.00;;;;;;5078225;28;20036;-77
2021/04/11 11:35:01;;;;;;;2.22;0.77;;;17.10;52.10;;;;;;5080649;28;20046;-77
2021/04/11 11:37:32;;;;;;;1.38;0.57;;;16.90;52.20;;;;;;5092570;28;20056;-76
2021/04/11 11:40:12;;;;;;;1.70;0.80;;;17.00;52.30;;;;;;5092876;28;20032;-77
2021/04/11 11:42:56;;;;;;;0.88;0.63;;;17.10;51.80;;;;;;5092326;28;20032;-76
2021/04/11 11:45:40;;;;;;;1.00;0.63;;;17.30;51.90;;;;;;5087646;28;20086;-76
2021/04/11 11:48:24;;;;;;;1.15;0.60;;;17.30;51.30;;;;;;5080761;28;20091;-76
2021/04/11 11:51:03;;;;;;;1.80;0.63;;;17.40;51.60;;;;;;5087081;28;20044;-77
2021/04/11 11:54:02;;;;;;;1.17;0.85;;;17.40;51.70;;;;;;5088399;28;20024;-76
2021/04/11 11:56:36;;;;;;;1.35;1.05;;;17.40;51.20;;;;;;5081054;28;21408;-77
2021/04/11 11:59:32;;;;;;;1.00;0.60;;;17.30;50.80;;;;;;5087898;28;20024;-75
2021/04/11 12:02:01;;;;;;;2.80;0.60;;;17.30;51.30;;;;;;5089084;28;20036;-76
2021/04/11 12:04:33;;;;;;;10.13;5.85;;;17.50;50.90;;;;;;5077662;28;20016;-75
2021/04/11 12:07:09;;;;;;;1.65;1.05;;;17.60;50.30;;;;;;5087665;28;20024;-76
2021/04/11 12:09:42;;;;;;;1.25;0.93;;;17.70;50.30;;;;;;5084183;28;20468;-76
2021/04/11 12:12:20;;;;;;;1.05;0.65;;;17.90;50.10;;;;;;5090624;28;20028;-76
2021/04/11 12:15:03;;;;;;;1.13;0.60;;;17.90;49.90;;;;;;5091182;28;20030;-76
2021/04/11 12:17:29;;;;;;;1.58;0.98;;;18.20;49.50;;;;;;5088383;28;20020;-77
2021/04/11 12:20:02;;;;;;;0.52;0.50;;;18.50;48.50;;;;;;5092030;28;20035;-78
2021/04/11 12:23:03;;;;;;;0.73;0.57;;;18.80;48.80;;;;;;5090231;28;20016;-77
2021/04/11 12:25:32;;;;;;;0.77;0.50;;;18.70;47.10;;;;;;5081175;28;20024;-78
2021/04/11 12:28:28;;;;;;;0.70;0.50;;;18.60;47.70;;;;;;5082715;28;20453;-77
2021/04/11 12:30:55;;;;;;;1.55;0.47;;;18.60;48.10;;;;;;5086575;28;20032;-78
2021/04/11 12:33:53;;;;;;;1.27;0.50;;;18.80;48.70;;;;;;5088472;28;20020;-78
2021/04/11 12:36:22;;;;;;;1.48;0.50;;;19.00;48.00;;;;;;5084295;28;20077;-78
2021/04/11 12:38:53;;;;;;;0.98;0.60;;;19.00;48.20;;;;;;5076403;28;20106;-75
2021/04/11 12:41:23;;;;;;;1.00;0.50;;;18.70;48.70;;;;;;5092100;28;20020;-75
2021/04/11 12:44:06;;;;;;;1.00;0.60;;;18.90;48.60;;;;;;5090843;28;20024;-75
2021/04/11 12:47:05;;;;;;;0.98;0.63;;;19.00;48.00;;;;;;5076908;28;20447;-78
2021/04/11 12:49:52;;;;;;;1.45;0.70;;;19.00;48.30;;;;;;5034283;28;20082;-78
2021/04/11 12:52:22;;;;;;;2.55;0.60;;;19.00;48.00;;;;;;5071186;28;20047;-78
2021/04/11 12:54:59;;;;;;;1.10;0.50;;;19.30;47.70;;;;;;5070728;28;20466;-82
2021/04/11 12:57:40;;;;;;;0.95;0.63;;;19.50;47.10;;;;;;5058160;28;20028;-82
2021/04/11 13:00:06;;;;;;;0.60;0.45;;;19.60;46.90;;;;;;5092408;28;20032;-82
2021/04/11 13:02:59;;;;;;;2.05;0.60;;;19.60;46.80;;;;;;5081070;28;20069;-82
2021/04/11 13:05:46;;;;;;;2.42;0.60;;;19.60;46.40;;;;;;5079908;28;20065;-80
2021/04/11 13:08:41;;;;;;;1.65;0.60;;;19.40;46.50;;;;;;5068106;28;20373;-81
2021/04/11 13:11:19;;;;;;;2.58;0.60;;;19.20;47.60;;;;;;5071805;28;20081;-82
2021/04/11 13:13:53;;;;;;;0.65;0.40;;;19.00;47.70;;;;;;5068381;28;20020;-82
2021/04/11 13:16:38;;;;;;;1.05;0.57;;;18.90;47.90;;;;;;5079495;28;20107;-80
2021/04/11 13:19:20;;;;;;;0.75;0.40;;;18.80;47.90;;;;;;5076305;28;20036;-83
2021/04/11 13:22:03;;;;;;;0.45;0.40;;;18.70;48.70;;;;;;5062777;28;20017;-81
2021/04/11 13:24:38;;;;;;;0.65;0.60;;;18.50;48.90;;;;;;5071173;28;20029;-81
2021/04/11 13:27:09;;;;;;;0.73;0.50;;;18.30;49.50;;;;;;5071171;28;20028;-82
2021/04/11 13:29:53;;;;;;;1.13;0.80;;;18.10;50.40;;;;;;5086464;28;20020;-81
2021/04/11 13:32:22;;;;;;;0.50;0.40;;;17.90;50.30;;;;;;5085546;28;20028;-81
2021/04/11 13:35:08;;;;;;;3.30;0.65;;;17.70;51.20;;;;;;5083522;28;20020;-82
2021/04/11 13:37:41;;;;;;;0.73;0.50;;;17.50;51.90;;;;;;5067032;28;20016;-81
2021/04/11 13:40:12;;;;;;;1.30;0.45;;;17.30;52.50;;;;;;5069427;28;20028;-81
2021/04/11 13:43:21;;;;;;;1.55;0.57;;;17.10;53.60;;;;;;5089132;28;20039;-81
2021/04/11 13:45:47;;;;;;;3.47;1.05;;;17.00;54.20;;;;;;5065797;28;20124;-82